createdAt,value
2023-01-17T00:02:06.941Z,9.00
2023-01-17T00:04:52.670Z,8.30
2023-01-17T00:07:39.508Z,8.20
2023-01-17T00:10:17.694Z,8.30
2023-01-17T00:12:53.258Z,8.70
2023-01-17T00:15:20.638Z,8.10
2023-01-17T00:17:47.822Z,8.80
2023-01-17T00:20:37.781Z,8.50
2023-01-17T00:23:27.530Z,8.30
2023-01-17T00:26:03.478Z,7.30
2023-01-17T00:28:32.246Z,8.10
2023-01-17T00:30:59.139Z,8.10
2023-01-17T00:33:26.137Z,8.60
2023-01-17T00:35:53.319Z,8.60
2023-01-17T00:38:21.929Z,8.50
2023-01-17T00:40:48.987Z,8.80
2023-01-17T00:43:37.714Z,9.10
2023-01-17T00:46:23.416Z,8.50
2023-01-17T00:49:09.089Z,7.90
2023-01-17T00:51:55.307Z,9.00
2023-01-17T00:54:40.820Z,8.60
2023-01-17T00:57:26.430Z,9.20
2023-01-17T01:00:12.067Z,8.30
2023-01-17T01:02:57.727Z,8.50
2023-01-17T01:05:43.483Z,8.80
2023-01-17T01:08:42.967Z,9.40
2023-01-17T01:11:33.049Z,8.60
2023-01-17T01:14:18.677Z,9.50
2023-01-17T01:17:04.358Z,9.30
2023-01-17T01:19:50.154Z,9.00
2023-01-17T01:22:35.871Z,9.50
2023-01-17T01:25:21.930Z,9.60
2023-01-17T01:28:07.732Z,9.20
2023-01-17T01:30:53.365Z,9.80
2023-01-17T01:33:20.387Z,9.60
2023-01-17T01:35:51.628Z,9.20
2023-01-17T01:38:19.407Z,8.60
2023-01-17T01:40:48.199Z,9.20
2023-01-17T01:43:16.481Z,9.30
2023-01-17T01:45:46.219Z,9.20
2023-01-17T01:48:33.892Z,9.30
2023-01-17T01:51:03.222Z,8.80
2023-01-17T01:53:30.313Z,9.00
2023-01-17T01:55:57.351Z,8.40
2023-01-17T01:58:25.731Z,9.50
2023-01-17T02:00:52.742Z,9.80
2023-01-17T06:00:53.687Z,17.80
2023-01-17T06:03:20.824Z,17.40
2023-01-17T06:05:47.832Z,17.60
2023-01-17T06:08:14.902Z,17.60
2023-01-17T06:10:41.953Z,16.90
2023-01-17T06:13:12.578Z,17.20
2023-01-17T06:15:39.845Z,16.60
2023-01-17T06:18:14.292Z,17.20
2023-01-17T06:20:41.627Z,16.60
2023-01-17T08:01:44.713Z,14.60
2023-01-17T08:04:12.090Z,16.90
2023-01-17T08:06:39.595Z,17.70
2023-01-17T08:09:06.620Z,15.80
2023-01-17T08:11:33.569Z,16.90
2023-01-17T08:14:00.644Z,16.90
2023-01-17T08:16:28.950Z,17.00
2023-01-17T08:18:56.580Z,16.60
2023-01-17T08:21:24.780Z,15.70
2023-01-17T08:23:51.974Z,17.20
2023-01-17T08:26:22.878Z,17.40
2023-01-17T08:29:02.585Z,16.70
2023-01-17T08:31:34.584Z,15.40
2023-01-17T08:36:29.162Z,16.70
2023-01-17T08:38:56.220Z,15.30
2023-01-17T08:41:23.796Z,17.50
2023-01-17T08:43:51.560Z,17.70
2023-01-17T08:46:18.806Z,16.90
2023-01-17T08:48:46.048Z,15.60
2023-01-17T08:51:13.105Z,17.40
2023-01-17T08:53:40.966Z,16.90
2023-01-17T08:56:08.331Z,16.90
2023-01-17T08:58:36.095Z,16.80
2023-01-17T09:01:04.979Z,16.90
2023-01-17T09:03:32.957Z,18.90
2023-01-17T09:06:03.992Z,16.80
2023-01-17T09:08:31.692Z,16.50
2023-01-17T09:10:58.811Z,17.30
2023-01-17T09:13:25.866Z,19.40
2023-01-17T09:15:56.844Z,18.20
2023-01-17T09:18:24.967Z,16.60
2023-01-17T09:20:55.412Z,16.80
2023-01-17T09:23:24.724Z,16.00
2023-01-17T09:25:58.598Z,17.30
2023-01-17T09:28:28.711Z,17.10
2023-01-17T09:30:55.738Z,18.50
2023-01-17T09:33:25.627Z,19.70
2023-01-17T09:35:52.575Z,17.50
2023-01-17T09:38:21.908Z,18.80
2023-01-17T09:40:49.020Z,16.50
2023-01-17T09:43:23.502Z,17.70
2023-01-17T09:45:50.541Z,17.20
2023-01-17T09:48:23.249Z,17.30
2023-01-17T09:50:57.298Z,16.20
2023-01-17T09:53:24.257Z,16.80
2023-01-17T09:56:03.416Z,16.60
2023-01-17T16:18:30.729Z,22.00
2023-01-17T16:21:01.958Z,22.00
2023-01-17T16:23:29.028Z,22.60
2023-01-17T16:25:56.028Z,21.60
2023-01-17T16:28:23.324Z,20.20
2023-01-17T16:30:50.343Z,21.10
2023-01-17T16:33:17.399Z,21.20
2023-01-17T16:35:44.391Z,22.30
2023-01-17T16:38:12.863Z,21.00
2023-01-17T16:40:44.582Z,20.80
2023-01-17T16:43:12.355Z,19.50
2023-01-17T16:45:41.168Z,20.70
2023-01-17T16:48:08.318Z,19.40
2023-01-17T16:50:35.309Z,20.30
2023-01-17T16:53:02.377Z,20.10
2023-01-17T16:55:29.345Z,21.40
2023-01-17T16:57:57.176Z,21.40
2023-01-17T17:00:24.204Z,20.40
2023-01-17T17:02:51.692Z,19.80
2023-01-17T17:05:19.094Z,20.90
2023-01-17T17:07:50.846Z,20.80
2023-01-17T17:10:19.997Z,20.10
2023-01-17T17:12:47.030Z,20.40
2023-01-17T17:15:14.127Z,19.10
2023-01-17T17:17:42.387Z,20.70
2023-01-17T17:20:14.309Z,19.40
2023-01-17T17:22:43.855Z,19.00
2023-01-17T17:25:12.234Z,20.80
2023-01-17T17:27:39.290Z,21.00
2023-01-17T17:30:07.300Z,20.80
2023-01-17T17:32:34.306Z,20.10
2023-01-17T17:35:01.354Z,21.90
2023-01-17T17:37:31.503Z,21.40
2023-01-17T17:39:58.528Z,21.50
2023-01-17T17:42:25.783Z,21.50
2023-01-17T17:44:52.882Z,21.80
2023-01-17T17:47:19.983Z,21.00
2023-01-17T17:49:46.961Z,20.70
2023-01-17T17:52:15.329Z,22.00
2023-01-17T17:54:42.300Z,22.10
2023-01-17T17:57:09.721Z,21.70
2023-01-17T17:59:36.796Z,20.40
2023-01-17T21:20:08.256Z,21.10
2023-01-17T21:22:35.519Z,21.40
2023-01-17T21:25:02.600Z,20.90
2023-01-17T21:27:29.812Z,20.10
2023-01-17T21:29:57.380Z,18.80
2023-01-17T21:32:25.012Z,17.20
2023-01-17T21:34:52.579Z,17.20
2023-01-17T21:37:19.698Z,16.20
2023-01-17T21:39:51.583Z,16.90
2023-01-17T21:42:18.573Z,16.80
2023-01-17T21:44:45.669Z,15.90
2023-01-17T21:47:12.714Z,16.60
2023-01-17T21:49:39.973Z,16.20
2023-01-17T21:52:07.016Z,15.70
2023-01-17T21:54:53.211Z,16.50
2023-01-17T21:57:39.978Z,17.20
2023-01-17T22:00:09.747Z,17.10
2023-01-17T22:02:42.265Z,17.50
2023-01-17T22:05:09.858Z,18.60
2023-01-17T22:07:39.118Z,17.50
2023-01-17T22:10:06.858Z,17.60
2023-01-17T22:12:33.878Z,17.90
2023-01-17T22:15:00.851Z,17.40
2023-01-17T22:17:29.588Z,17.30
2023-01-17T22:19:56.611Z,18.00
2023-01-17T22:22:23.807Z,18.20
2023-01-17T22:24:51.020Z,16.90
2023-01-17T22:27:21.114Z,17.20
2023-01-17T22:29:48.168Z,16.80
2023-01-17T22:32:15.140Z,17.60
2023-01-17T22:34:43.297Z,18.40
2023-01-17T22:37:10.351Z,16.60
2023-01-17T22:39:39.061Z,18.30
2023-01-17T22:42:06.367Z,18.40
2023-01-17T22:44:33.592Z,18.40
2023-01-17T22:47:00.678Z,17.80
2023-01-17T22:49:28.036Z,17.90
2023-01-17T22:51:55.085Z,18.00
2023-01-17T22:54:23.564Z,18.20
2023-01-17T22:56:50.552Z,18.20
2023-01-17T22:59:17.582Z,18.00
2023-01-17T23:01:44.616Z,19.20
2023-01-17T23:04:16.280Z,17.80
2023-01-17T23:06:43.629Z,18.10
2023-01-17T23:09:14.284Z,19.00
2023-01-17T23:11:43.433Z,17.80
2023-01-17T23:14:18.541Z,18.90
2023-01-17T23:17:09.118Z,17.00
2023-01-17T23:19:49.583Z,17.00
2023-01-17T23:22:22.555Z,17.90
2023-01-17T23:24:51.497Z,18.30
2023-01-17T23:27:44.343Z,18.80
2023-01-17T23:30:14.133Z,18.70
2023-01-17T23:32:47.012Z,19.90
2023-01-17T23:35:15.024Z,18.00
2023-01-17T23:38:01.975Z,19.40
2023-01-17T23:40:29.212Z,17.90
2023-01-17T23:43:14.877Z,17.80
2023-01-17T23:45:41.884Z,19.20
2023-01-17T23:48:11.812Z,17.50
2023-01-17T23:50:40.055Z,18.40
